sensor_id;sensor_type;location;lat;lon;timestamp;temperature;humidity
9223;DHT22;7557;51.698;3.942;2024-03-02T00:01:44;7.60;99.90
9223;DHT22;7557;51.698;3.942;2024-03-02T00:04:12;7.70;99.90
9223;DHT22;7557;51.698;3.942;2024-03-02T00:06:40;7.70;99.90
9223;DHT22;7557;51.698;3.942;2024-03-02T00:09:09;7.70;99.90
9223;DHT22;7557;51.698;3.942;2024-03-02T00:11:38;7.70;99.90
9223;DHT22;7557;51.698;3.942;2024-03-02T00:14:06;7.70;99.90
9223;DHT22;7557;51.698;3.942;2024-03-02T00:16:34;7.70;99.90
9223;DHT22;7557;51.698;3.942;2024-03-02T00:19:03;7.70;99.90
9223;DHT22;7557;51.698;3.942;2024-03-02T00:21:31;7.70;99.90
9223;DHT22;7557;51.698;3.942;2024-03-02T00:24:00;7.70;99.90
9223;DHT22;7557;51.698;3.942;2024-03-02T00:26:30;7.70;99.90
9223;DHT22;7557;51.698;3.942;2024-03-02T00:28:58;7.70;99.90
9223;DHT22;7557;51.698;3.942;2024-03-02T00:31:26;7.70;99.90
9223;DHT22;7557;51.698;3.942;2024-03-02T00:33:52;7.70;99.90
9223;DHT22;7557;51.698;3.942;2024-03-02T00:36:25;7.70;99.90
9223;DHT22;7557;51.698;3.942;2024-03-02T00:38:54;7.70;99.90
9223;DHT22;7557;51.698;3.942;2024-03-02T00:41:23;7.80;99.90
9223;DHT22;7557;51.698;3.942;2024-03-02T00:44:00;7.80;99.90
9223;DHT22;7557;51.698;3.942;2024-03-02T00:46:29;7.70;99.90
9223;DHT22;7557;51.698;3.942;2024-03-02T00:48:59;7.70;99.90
9223;DHT22;7557;51.698;3.942;2024-03-02T00:51:28;7.70;99.90
9223;DHT22;7557;51.698;3.942;2024-03-02T00:53:59;7.70;99.90
9223;DHT22;7557;51.698;3.942;2024-03-02T00:56:27;7.70;99.90
9223;DHT22;7557;51.698;3.942;2024-03-02T00:58:54;7.70;99.90
9223;DHT22;7557;51.698;3.942;2024-03-02T01:01:25;7.70;99.90
9223;DHT22;7557;51.698;3.942;2024-03-02T01:03:53;7.70;99.90
9223;DHT22;7557;51.698;3.942;2024-03-02T01:06:20;7.70;99.90
9223;DHT22;7557;51.698;3.942;2024-03-02T01:08:48;7.60;99.90
9223;DHT22;7557;51.698;3.942;2024-03-02T01:11:17;7.60;99.90
9223;DHT22;7557;51.698;3.942;2024-03-02T01:13:47;7.70;99.90
9223;DHT22;7557;51.698;3.942;2024-03-02T01:16:15;7.60;99.90
9223;DHT22;7557;51.698;3.942;2024-03-02T01:18:44;7.60;99.90
9223;DHT22;7557;51.698;3.942;2024-03-02T01:21:11;7.60;99.90
9223;DHT22;7557;51.698;3.942;2024-03-02T01:23:39;7.60;99.90
9223;DHT22;7557;51.698;3.942;2024-03-02T01:26:07;7.60;99.90
9223;DHT22;7557;51.698;3.942;2024-03-02T01:28:35;7.60;99.90
9223;DHT22;7557;51.698;3.942;2024-03-02T01:31:03;7.60;99.90
9223;DHT22;7557;51.698;3.942;2024-03-02T01:33:30;7.60;99.90
9223;DHT22;7557;51.698;3.942;2024-03-02T01:35:59;7.60;99.90
9223;DHT22;7557;51.698;3.942;2024-03-02T01:38:27;7.60;99.90
9223;DHT22;7557;51.698;3.942;2024-03-02T01:40:55;7.60;99.90
9223;DHT22;7557;51.698;3.942;2024-03-02T01:43:24;7.60;99.90
9223;DHT22;7557;51.698;3.942;2024-03-02T01:45:51;7.50;99.90
9223;DHT22;7557;51.698;3.942;2024-03-02T01:48:19;7.60;99.90
9223;DHT22;7557;51.698;3.942;2024-03-02T01:50:47;7.50;99.90
9223;DHT22;7557;51.698;3.942;2024-03-02T01:53:16;7.50;99.90
9223;DHT22;7557;51.698;3.942;2024-03-02T01:55:43;7.50;99.90
9223;DHT22;7557;51.698;3.942;2024-03-02T01:58:11;7.50;99.90
9223;DHT22;7557;51.698;3.942;2024-03-02T02:00:39;7.50;99.90
9223;DHT22;7557;51.698;3.942;2024-03-02T02:03:06;7.50;99.90
9223;DHT22;7557;51.698;3.942;2024-03-02T02:05:34;7.50;99.90
9223;DHT22;7557;51.698;3.942;2024-03-02T02:08:02;7.50;99.90
9223;DHT22;7557;51.698;3.942;2024-03-02T02:10:32;7.50;99.90
9223;DHT22;7557;51.698;3.942;2024-03-02T02:13:00;7.50;99.90
9223;DHT22;7557;51.698;3.942;2024-03-02T02:15:30;7.60;99.90
9223;DHT22;7557;51.698;3.942;2024-03-02T02:18:00;7.50;99.90
9223;DHT22;7557;51.698;3.942;2024-03-02T02:20:29;7.50;99.90
9223;DHT22;7557;51.698;3.942;2024-03-02T02:22:59;7.50;99.90
9223;DHT22;7557;51.698;3.942;2024-03-02T02:25:26;7.60;99.90
9223;DHT22;7557;51.698;3.942;2024-03-02T02:27:54;7.60;99.90
9223;DHT22;7557;51.698;3.942;2024-03-02T02:30:23;7.60;99.90
9223;DHT22;7557;51.698;3.942;2024-03-02T02:32:50;7.60;99.90
9223;DHT22;7557;51.698;3.942;2024-03-02T02:35:18;7.60;99.90
9223;DHT22;7557;51.698;3.942;2024-03-02T02:37:47;7.70;99.90
9223;DHT22;7557;51.698;3.942;2024-03-02T02:40:17;7.70;99.90
9223;DHT22;7557;51.698;3.942;2024-03-02T02:42:46;7.70;99.90
9223;DHT22;7557;51.698;3.942;2024-03-02T02:45:13;7.70;99.90
9223;DHT22;7557;51.698;3.942;2024-03-02T02:47:41;7.70;99.90
9223;DHT22;7557;51.698;3.942;2024-03-02T02:50:10;7.70;99.90
9223;DHT22;7557;51.698;3.942;2024-03-02T02:52:39;7.70;99.90
9223;DHT22;7557;51.698;3.942;2024-03-02T02:55:08;7.70;99.90
9223;DHT22;7557;51.698;3.942;2024-03-02T02:57:40;7.70;99.90
9223;DHT22;7557;51.698;3.942;2024-03-02T03:00:09;7.70;99.90
9223;DHT22;7557;51.698;3.942;2024-03-02T03:02:40;7.70;99.90
9223;DHT22;7557;51.698;3.942;2024-03-02T03:05:09;7.70;99.90
9223;DHT22;7557;51.698;3.942;2024-03-02T03:07:37;7.70;99.90
9223;DHT22;7557;51.698;3.942;2024-03-02T03:10:06;7.70;99.90
9223;DHT22;7557;51.698;3.942;2024-03-02T03:12:34;7.70;99.90
9223;DHT22;7557;51.698;3.942;2024-03-02T03:15:04;7.70;99.90
9223;DHT22;7557;51.698;3.942;2024-03-02T03:17:32;7.70;99.90
9223;DHT22;7557;51.698;3.942;2024-03-02T03:20:00;7.70;99.90
9223;DHT22;7557;51.698;3.942;2024-03-02T03:22:30;7.70;99.90
9223;DHT22;7557;51.698;3.942;2024-03-02T03:24:57;7.70;99.90
9223;DHT22;7557;51.698;3.942;2024-03-02T03:27:25;7.70;99.90
9223;DHT22;7557;51.698;3.942;2024-03-02T03:29:53;7.70;99.90
9223;DHT22;7557;51.698;3.942;2024-03-02T03:32:23;7.70;99.90
9223;DHT22;7557;51.698;3.942;2024-03-02T03:34:50;7.70;99.90
9223;DHT22;7557;51.698;3.942;2024-03-02T03:37:19;7.70;99.90
9223;DHT22;7557;51.698;3.942;2024-03-02T03:39:47;7.70;99.90
9223;DHT22;7557;51.698;3.942;2024-03-02T03:42:14;7.70;99.90
9223;DHT22;7557;51.698;3.942;2024-03-02T03:44:42;7.80;99.90
9223;DHT22;7557;51.698;3.942;2024-03-02T03:47:10;7.70;99.90
9223;DHT22;7557;51.698;3.942;2024-03-02T03:49:39;7.80;99.90
9223;DHT22;7557;51.698;3.942;2024-03-02T03:52:07;7.80;99.90
9223;DHT22;7557;51.698;3.942;2024-03-02T03:54:34;7.80;99.90
9223;DHT22;7557;51.698;3.942;2024-03-02T03:57:03;7.80;99.90
9223;DHT22;7557;51.698;3.942;2024-03-02T03:59:30;7.80;99.90
9223;DHT22;7557;51.698;3.942;2024-03-02T04:01:58;7.80;99.90
9223;DHT22;7557;51.698;3.942;2024-03-02T04:04:25;7.80;99.90
9223;DHT22;7557;51.698;3.942;2024-03-02T04:06:58;7.80;99.90
9223;DHT22;7557;51.698;3.942;2024-03-02T04:09:26;7.80;99.90
9223;DHT22;7557;51.698;3.942;2024-03-02T04:11:53;7.80;99.90
9223;DHT22;7557;51.698;3.942;2024-03-02T04:14:21;7.80;99.90
9223;DHT22;7557;51.698;3.942;2024-03-02T04:16:49;7.80;99.90
9223;DHT22;7557;51.698;3.942;2024-03-02T04:19:17;7.80;99.90
9223;DHT22;7557;51.698;3.942;2024-03-02T04:21:45;7.80;99.90
9223;DHT22;7557;51.698;3.942;2024-03-02T04:24:14;7.80;99.90
9223;DHT22;7557;51.698;3.942;2024-03-02T04:26:41;7.80;99.90
9223;DHT22;7557;51.698;3.942;2024-03-02T04:29:09;7.80;99.90
9223;DHT22;7557;51.698;3.942;2024-03-02T04:31:36;7.70;99.90
9223;DHT22;7557;51.698;3.942;2024-03-02T04:34:04;7.80;99.90
9223;DHT22;7557;51.698;3.942;2024-03-02T04:36:31;7.70;99.90
9223;DHT22;7557;51.698;3.942;2024-03-02T04:38:59;7.70;99.90
9223;DHT22;7557;51.698;3.942;2024-03-02T04:41:28;7.70;99.90
9223;DHT22;7557;51.698;3.942;2024-03-02T04:43:56;7.80;99.90
9223;DHT22;7557;51.698;3.942;2024-03-02T04:46:25;7.80;99.90
9223;DHT22;7557;51.698;3.942;2024-03-02T04:48:53;7.80;99.90
9223;DHT22;7557;51.698;3.942;2024-03-02T04:51:22;7.80;99.90
9223;DHT22;7557;51.698;3.942;2024-03-02T04:53:50;7.80;99.90
9223;DHT22;7557;51.698;3.942;2024-03-02T04:56:17;7.80;99.90
9223;DHT22;7557;51.698;3.942;2024-03-02T04:59:06;7.80;99.90
9223;DHT22;7557;51.698;3.942;2024-03-02T05:01:34;7.80;99.90
9223;DHT22;7557;51.698;3.942;2024-03-02T05:04:01;7.80;99.90
9223;DHT22;7557;51.698;3.942;2024-03-02T05:06:29;7.80;99.90
9223;DHT22;7557;51.698;3.942;2024-03-02T05:08:57;7.80;99.90
9223;DHT22;7557;51.698;3.942;2024-03-02T05:11:24;7.80;99.90
9223;DHT22;7557;51.698;3.942;2024-03-02T05:14:10;7.80;99.90
9223;DHT22;7557;51.698;3.942;2024-03-02T05:16:38;7.80;99.90
9223;DHT22;7557;51.698;3.942;2024-03-02T05:19:06;7.80;99.90
9223;DHT22;7557;51.698;3.942;2024-03-02T05:21:34;7.70;99.90
9223;DHT22;7557;51.698;3.942;2024-03-02T05:24:02;7.70;99.90
9223;DHT22;7557;51.698;3.942;2024-03-02T05:26:30;7.80;99.90
9223;DHT22;7557;51.698;3.942;2024-03-02T05:28:57;7.70;99.90
9223;DHT22;7557;51.698;3.942;2024-03-02T05:31:26;7.80;99.90
9223;DHT22;7557;51.698;3.942;2024-03-02T05:33:57;7.80;99.90
9223;DHT22;7557;51.698;3.942;2024-03-02T05:36:25;7.80;99.90
9223;DHT22;7557;51.698;3.942;2024-03-02T05:38:52;7.70;99.90
9223;DHT22;7557;51.698;3.942;2024-03-02T05:41:20;7.80;99.90
9223;DHT22;7557;51.698;3.942;2024-03-02T05:43:48;7.80;99.90
9223;DHT22;7557;51.698;3.942;2024-03-02T05:46:15;7.70;99.90
9223;DHT22;7557;51.698;3.942;2024-03-02T05:48:45;7.80;99.90
9223;DHT22;7557;51.698;3.942;2024-03-02T05:51:12;7.70;99.90
9223;DHT22;7557;51.698;3.942;2024-03-02T05:53:40;7.70;99.90
9223;DHT22;7557;51.698;3.942;2024-03-02T05:56:08;7.70;99.90
9223;DHT22;7557;51.698;3.942;2024-03-02T05:58:35;7.70;99.90
9223;DHT22;7557;51.698;3.942;2024-03-02T06:01:15;7.70;99.90
9223;DHT22;7557;51.698;3.942;2024-03-02T06:03:45;7.70;99.90
9223;DHT22;7557;51.698;3.942;2024-03-02T06:06:13;7.70;99.90
9223;DHT22;7557;51.698;3.942;2024-03-02T06:08:40;7.60;99.90
9223;DHT22;7557;51.698;3.942;2024-03-02T06:11:08;7.60;99.90
9223;DHT22;7557;51.698;3.942;2024-03-02T06:13:36;7.60;99.90
9223;DHT22;7557;51.698;3.942;2024-03-02T06:16:04;7.60;99.90
9223;DHT22;7557;51.698;3.942;2024-03-02T06:18:31;7.60;99.90
9223;DHT22;7557;51.698;3.942;2024-03-02T06:21:03;7.60;99.90
9223;DHT22;7557;51.698;3.942;2024-03-02T06:23:31;7.60;99.90
9223;DHT22;7557;51.698;3.942;2024-03-02T06:25:58;7.50;99.90
9223;DHT22;7557;51.698;3.942;2024-03-02T06:28:25;7.50;99.90
9223;DHT22;7557;51.698;3.942;2024-03-02T06:30:57;7.50;99.90
9223;DHT22;7557;51.698;3.942;2024-03-02T06:33:25;7.50;99.90
9223;DHT22;7557;51.698;3.942;2024-03-02T06:35:53;7.50;99.90
9223;DHT22;7557;51.698;3.942;2024-03-02T06:38:22;7.40;99.90
9223;DHT22;7557;51.698;3.942;2024-03-02T06:40:49;7.40;99.90
9223;DHT22;7557;51.698;3.942;2024-03-02T06:43:17;7.40;99.90
9223;DHT22;7557;51.698;3.942;2024-03-02T06:45:44;7.40;99.90
9223;DHT22;7557;51.698;3.942;2024-03-02T06:48:14;7.40;99.90
9223;DHT22;7557;51.698;3.942;2024-03-02T06:50:45;7.40;99.90
9223;DHT22;7557;51.698;3.942;2024-03-02T06:53:14;7.40;99.90
9223;DHT22;7557;51.698;3.942;2024-03-02T06:55:45;7.40;99.90
9223;DHT22;7557;51.698;3.942;2024-03-02T06:58:12;7.40;99.90
9223;DHT22;7557;51.698;3.942;2024-03-02T07:00:41;7.40;99.90
9223;DHT22;7557;51.698;3.942;2024-03-02T07:03:09;7.40;99.90
9223;DHT22;7557;51.698;3.942;2024-03-02T07:05:38;7.40;99.90
9223;DHT22;7557;51.698;3.942;2024-03-02T07:08:05;7.30;99.90
9223;DHT22;7557;51.698;3.942;2024-03-02T07:10:33;7.30;99.90
9223;DHT22;7557;51.698;3.942;2024-03-02T07:13:02;7.30;99.90
9223;DHT22;7557;51.698;3.942;2024-03-02T07:15:30;7.40;99.90
9223;DHT22;7557;51.698;3.942;2024-03-02T07:18:15;7.40;99.90
9223;DHT22;7557;51.698;3.942;2024-03-02T07:20:43;7.40;99.90
9223;DHT22;7557;51.698;3.942;2024-03-02T07:23:10;7.40;99.90
9223;DHT22;7557;51.698;3.942;2024-03-02T07:25:38;7.40;99.90
9223;DHT22;7557;51.698;3.942;2024-03-02T07:28:07;7.40;99.90
9223;DHT22;7557;51.698;3.942;2024-03-02T07:30:34;7.50;99.90
9223;DHT22;7557;51.698;3.942;2024-03-02T07:33:05;7.50;99.90
9223;DHT22;7557;51.698;3.942;2024-03-02T07:35:32;7.50;99.90
9223;DHT22;7557;51.698;3.942;2024-03-02T07:38:00;7.50;99.90
9223;DHT22;7557;51.698;3.942;2024-03-02T07:40:27;7.60;99.90
9223;DHT22;7557;51.698;3.942;2024-03-02T07:42:55;7.60;99.90
9223;DHT22;7557;51.698;3.942;2024-03-02T07:45:24;7.60;99.90
9223;DHT22;7557;51.698;3.942;2024-03-02T07:47:52;7.60;99.90
9223;DHT22;7557;51.698;3.942;2024-03-02T07:50:19;7.60;99.90
9223;DHT22;7557;51.698;3.942;2024-03-02T07:52:47;7.70;99.90
9223;DHT22;7557;51.698;3.942;2024-03-02T07:55:14;7.70;99.90
9223;DHT22;7557;51.698;3.942;2024-03-02T07:57:42;7.70;99.90
9223;DHT22;7557;51.698;3.942;2024-03-02T08:00:11;7.70;99.90
9223;DHT22;7557;51.698;3.942;2024-03-02T08:02:42;7.80;99.90
9223;DHT22;7557;51.698;3.942;2024-03-02T08:05:09;7.80;99.90
9223;DHT22;7557;51.698;3.942;2024-03-02T08:07:37;7.90;99.90
9223;DHT22;7557;51.698;3.942;2024-03-02T08:10:06;7.90;99.90
9223;DHT22;7557;51.698;3.942;2024-03-02T08:12:33;8.00;99.90
9223;DHT22;7557;51.698;3.942;2024-03-02T08:15:01;8.00;99.90
9223;DHT22;7557;51.698;3.942;2024-03-02T08:17:29;8.00;99.90
9223;DHT22;7557;51.698;3.942;2024-03-02T08:19:58;8.10;99.90
9223;DHT22;7557;51.698;3.942;2024-03-02T08:22:26;8.10;99.90
9223;DHT22;7557;51.698;3.942;2024-03-02T08:24:54;8.10;99.90
9223;DHT22;7557;51.698;3.942;2024-03-02T08:27:21;8.20;99.90
9223;DHT22;7557;51.698;3.942;2024-03-02T08:29:49;8.20;99.90
9223;DHT22;7557;51.698;3.942;2024-03-02T08:32:17;8.20;99.90
9223;DHT22;7557;51.698;3.942;2024-03-02T08:34:45;8.20;99.90
9223;DHT22;7557;51.698;3.942;2024-03-02T08:37:14;8.20;99.90
9223;DHT22;7557;51.698;3.942;2024-03-02T08:39:42;8.30;99.90
9223;DHT22;7557;51.698;3.942;2024-03-02T08:42:10;8.30;99.90
9223;DHT22;7557;51.698;3.942;2024-03-02T08:44:37;8.40;99.90
9223;DHT22;7557;51.698;3.942;2024-03-02T08:47:05;8.50;99.90
9223;DHT22;7557;51.698;3.942;2024-03-02T08:49:32;8.60;99.90
9223;DHT22;7557;51.698;3.942;2024-03-02T08:52:00;8.60;99.90
9223;DHT22;7557;51.698;3.942;2024-03-02T08:54:29;8.80;99.90
9223;DHT22;7557;51.698;3.942;2024-03-02T08:56:57;8.90;99.90
9223;DHT22;7557;51.698;3.942;2024-03-02T08:59:25;8.90;99.90
9223;DHT22;7557;51.698;3.942;2024-03-02T09:01:54;9.10;99.90
9223;DHT22;7557;51.698;3.942;2024-03-02T09:04:22;9.20;99.90
9223;DHT22;7557;51.698;3.942;2024-03-02T09:06:49;9.20;99.90
9223;DHT22;7557;51.698;3.942;2024-03-02T09:09:17;9.30;99.90
9223;DHT22;7557;51.698;3.942;2024-03-02T09:11:46;9.40;99.90
9223;DHT22;7557;51.698;3.942;2024-03-02T09:14:14;9.40;99.90
9223;DHT22;7557;51.698;3.942;2024-03-02T09:16:42;9.40;99.90
9223;DHT22;7557;51.698;3.942;2024-03-02T09:19:10;9.40;99.90
9223;DHT22;7557;51.698;3.942;2024-03-02T09:21:39;9.50;99.90
9223;DHT22;7557;51.698;3.942;2024-03-02T09:24:07;9.60;99.90
9223;DHT22;7557;51.698;3.942;2024-03-02T09:26:36;9.60;99.90
9223;DHT22;7557;51.698;3.942;2024-03-02T09:29:04;9.70;99.90
9223;DHT22;7557;51.698;3.942;2024-03-02T09:31:32;9.70;99.90
9223;DHT22;7557;51.698;3.942;2024-03-02T09:33:59;9.80;99.90
9223;DHT22;7557;51.698;3.942;2024-03-02T09:36:27;9.90;99.90
9223;DHT22;7557;51.698;3.942;2024-03-02T09:38:54;10.00;99.90
9223;DHT22;7557;51.698;3.942;2024-03-02T09:41:22;10.00;99.90
9223;DHT22;7557;51.698;3.942;2024-03-02T09:43:50;10.00;99.90
9223;DHT22;7557;51.698;3.942;2024-03-02T09:46:19;9.90;99.90
9223;DHT22;7557;51.698;3.942;2024-03-02T09:48:47;9.90;99.90
9223;DHT22;7557;51.698;3.942;2024-03-02T09:51:15;9.80;99.90
9223;DHT22;7557;51.698;3.942;2024-03-02T09:53:45;9.90;99.90
9223;DHT22;7557;51.698;3.942;2024-03-02T09:56:14;10.00;99.90
9223;DHT22;7557;51.698;3.942;2024-03-02T09:58:44;10.10;99.90
9223;DHT22;7557;51.698;3.942;2024-03-02T10:01:14;10.10;99.90
9223;DHT22;7557;51.698;3.942;2024-03-02T10:03:44;10.10;99.90
9223;DHT22;7557;51.698;3.942;2024-03-02T10:06:19;10.10;99.90
9223;DHT22;7557;51.698;3.942;2024-03-02T10:08:47;10.10;99.90
9223;DHT22;7557;51.698;3.942;2024-03-02T10:11:26;10.10;99.90
9223;DHT22;7557;51.698;3.942;2024-03-02T10:14:08;10.20;99.90
9223;DHT22;7557;51.698;3.942;2024-03-02T10:16:36;10.30;99.90
9223;DHT22;7557;51.698;3.942;2024-03-02T10:19:18;10.30;99.90
9223;DHT22;7557;51.698;3.942;2024-03-02T10:21:46;10.40;99.90
9223;DHT22;7557;51.698;3.942;2024-03-02T10:24:15;10.40;99.90
9223;DHT22;7557;51.698;3.942;2024-03-02T10:26:42;10.40;99.90
9223;DHT22;7557;51.698;3.942;2024-03-02T10:29:10;10.50;99.90
9223;DHT22;7557;51.698;3.942;2024-03-02T10:31:39;10.60;99.90
9223;DHT22;7557;51.698;3.942;2024-03-02T10:34:06;10.70;99.90
9223;DHT22;7557;51.698;3.942;2024-03-02T10:36:42;10.80;99.90
9223;DHT22;7557;51.698;3.942;2024-03-02T10:39:10;10.80;99.90
9223;DHT22;7557;51.698;3.942;2024-03-02T10:41:38;10.80;99.90
9223;DHT22;7557;51.698;3.942;2024-03-02T10:44:09;10.90;99.90
9223;DHT22;7557;51.698;3.942;2024-03-02T10:46:37;11.00;99.90
9223;DHT22;7557;51.698;3.942;2024-03-02T10:49:05;11.10;99.90
9223;DHT22;7557;51.698;3.942;2024-03-02T10:51:34;11.30;99.90
9223;DHT22;7557;51.698;3.942;2024-03-02T10:54:04;11.30;99.90
9223;DHT22;7557;51.698;3.942;2024-03-02T10:56:33;11.40;99.90
9223;DHT22;7557;51.698;3.942;2024-03-02T10:59:06;11.40;99.90
9223;DHT22;7557;51.698;3.942;2024-03-02T11:01:39;11.40;99.90
9223;DHT22;7557;51.698;3.942;2024-03-02T11:04:09;11.40;99.90
9223;DHT22;7557;51.698;3.942;2024-03-02T11:06:42;11.30;99.90
9223;DHT22;7557;51.698;3.942;2024-03-02T11:09:13;11.30;99.90
9223;DHT22;7557;51.698;3.942;2024-03-02T11:11:43;11.20;99.90
9223;DHT22;7557;51.698;3.942;2024-03-02T11:14:14;11.20;99.90
9223;DHT22;7557;51.698;3.942;2024-03-02T11:16:44;11.20;99.90
9223;DHT22;7557;51.698;3.942;2024-03-02T11:19:15;11.20;99.90
9223;DHT22;7557;51.698;3.942;2024-03-02T11:21:44;11.10;99.90
9223;DHT22;7557;51.698;3.942;2024-03-02T11:24:34;11.10;99.90
9223;DHT22;7557;51.698;3.942;2024-03-02T11:27:04;11.10;99.90
9223;DHT22;7557;51.698;3.942;2024-03-02T11:29:44;11.10;99.90
9223;DHT22;7557;51.698;3.942;2024-03-02T11:32:15;11.10;99.90
9223;DHT22;7557;51.698;3.942;2024-03-02T11:34:45;11.10;99.90
9223;DHT22;7557;51.698;3.942;2024-03-02T11:37:16;11.10;99.90
9223;DHT22;7557;51.698;3.942;2024-03-02T11:39:48;11.10;99.90
9223;DHT22;7557;51.698;3.942;2024-03-02T11:42:16;11.10;99.90
9223;DHT22;7557;51.698;3.942;2024-03-02T11:44:45;11.20;99.90
9223;DHT22;7557;51.698;3.942;2024-03-02T11:47:15;11.40;99.90
9223;DHT22;7557;51.698;3.942;2024-03-02T11:49:44;11.50;99.90
9223;DHT22;7557;51.698;3.942;2024-03-02T11:52:15;11.50;99.90
9223;DHT22;7557;51.698;3.942;2024-03-02T11:54:45;11.50;99.90
9223;DHT22;7557;51.698;3.942;2024-03-02T11:57:15;11.50;99.90
9223;DHT22;7557;51.698;3.942;2024-03-02T11:59:43;11.50;99.90
9223;DHT22;7557;51.698;3.942;2024-03-02T12:02:15;11.50;99.90
9223;DHT22;7557;51.698;3.942;2024-03-02T12:04:44;11.60;99.90
9223;DHT22;7557;51.698;3.942;2024-03-02T12:07:12;11.60;99.90
9223;DHT22;7557;51.698;3.942;2024-03-02T12:09:46;11.60;99.90
9223;DHT22;7557;51.698;3.942;2024-03-02T12:12:14;11.60;99.90
9223;DHT22;7557;51.698;3.942;2024-03-02T12:14:51;11.60;99.90
9223;DHT22;7557;51.698;3.942;2024-03-02T12:17:21;11.70;99.90
9223;DHT22;7557;51.698;3.942;2024-03-02T12:19:49;11.80;99.90
9223;DHT22;7557;51.698;3.942;2024-03-02T12:22:17;11.80;99.90
9223;DHT22;7557;51.698;3.942;2024-03-02T12:24:48;11.90;99.90
9223;DHT22;7557;51.698;3.942;2024-03-02T12:27:18;12.00;99.90
9223;DHT22;7557;51.698;3.942;2024-03-02T12:29:48;12.00;99.90
9223;DHT22;7557;51.698;3.942;2024-03-02T12:32:15;12.10;99.90
9223;DHT22;7557;51.698;3.942;2024-03-02T12:34:46;12.10;99.90
9223;DHT22;7557;51.698;3.942;2024-03-02T12:37:14;12.10;99.90
9223;DHT22;7557;51.698;3.942;2024-03-02T12:39:46;12.10;99.90
9223;DHT22;7557;51.698;3.942;2024-03-02T12:42:14;12.00;99.90
9223;DHT22;7557;51.698;3.942;2024-03-02T12:44:43;12.00;99.90
9223;DHT22;7557;51.698;3.942;2024-03-02T12:47:12;11.90;99.90
9223;DHT22;7557;51.698;3.942;2024-03-02T12:49:41;11.90;99.90
9223;DHT22;7557;51.698;3.942;2024-03-02T12:52:11;11.90;99.90
9223;DHT22;7557;51.698;3.942;2024-03-02T12:54:38;11.90;99.90
9223;DHT22;7557;51.698;3.942;2024-03-02T12:57:08;11.90;99.90
9223;DHT22;7557;51.698;3.942;2024-03-02T12:59:36;11.80;99.90
9223;DHT22;7557;51.698;3.942;2024-03-02T13:02:04;11.80;99.90
9223;DHT22;7557;51.698;3.942;2024-03-02T13:04:34;11.80;99.90
9223;DHT22;7557;51.698;3.942;2024-03-02T13:07:03;11.80;99.90
9223;DHT22;7557;51.698;3.942;2024-03-02T13:09:32;11.80;99.90
9223;DHT22;7557;51.698;3.942;2024-03-02T13:12:15;11.90;99.90
9223;DHT22;7557;51.698;3.942;2024-03-02T13:15:07;11.90;99.90
9223;DHT22;7557;51.698;3.942;2024-03-02T13:17:41;11.90;99.90
9223;DHT22;7557;51.698;3.942;2024-03-02T13:20:12;11.90;99.90
9223;DHT22;7557;51.698;3.942;2024-03-02T13:22:47;11.80;99.90
9223;DHT22;7557;51.698;3.942;2024-03-02T13:25:15;11.80;99.90
9223;DHT22;7557;51.698;3.942;2024-03-02T13:27:52;11.80;99.90
9223;DHT22;7557;51.698;3.942;2024-03-02T13:30:24;11.80;99.90
9223;DHT22;7557;51.698;3.942;2024-03-02T13:32:56;11.80;99.90
9223;DHT22;7557;51.698;3.942;2024-03-02T13:35:25;11.80;99.90
9223;DHT22;7557;51.698;3.942;2024-03-02T13:38:04;11.80;99.90
9223;DHT22;7557;51.698;3.942;2024-03-02T13:40:49;11.90;99.90
9223;DHT22;7557;51.698;3.942;2024-03-02T13:43:22;11.80;99.90
9223;DHT22;7557;51.698;3.942;2024-03-02T13:45:57;11.80;99.90
9223;DHT22;7557;51.698;3.942;2024-03-02T13:48:30;11.80;99.90
9223;DHT22;7557;51.698;3.942;2024-03-02T13:51:08;11.80;99.90
9223;DHT22;7557;51.698;3.942;2024-03-02T13:53:52;11.80;99.90
9223;DHT22;7557;51.698;3.942;2024-03-02T13:56:43;11.80;99.90
9223;DHT22;7557;51.698;3.942;2024-03-02T13:59:26;11.90;99.90
9223;DHT22;7557;51.698;3.942;2024-03-02T14:01:57;11.80;99.90
9223;DHT22;7557;51.698;3.942;2024-03-02T14:04:28;11.80;99.90
9223;DHT22;7557;51.698;3.942;2024-03-02T14:06:56;11.80;99.90
9223;DHT22;7557;51.698;3.942;2024-03-02T14:09:29;11.80;99.90
9223;DHT22;7557;51.698;3.942;2024-03-02T14:12:04;11.70;99.90
9223;DHT22;7557;51.698;3.942;2024-03-02T14:14:39;11.70;99.90
9223;DHT22;7557;51.698;3.942;2024-03-02T14:17:13;11.70;99.90
9223;DHT22;7557;51.698;3.942;2024-03-02T14:19:44;11.70;99.90
9223;DHT22;7557;51.698;3.942;2024-03-02T14:22:15;11.60;99.90
9223;DHT22;7557;51.698;3.942;2024-03-02T14:25:02;11.60;99.90
9223;DHT22;7557;51.698;3.942;2024-03-02T14:27:32;11.60;99.90
9223;DHT22;7557;51.698;3.942;2024-03-02T14:30:31;11.50;99.90
9223;DHT22;7557;51.698;3.942;2024-03-02T14:33:02;11.50;99.90
9223;DHT22;7557;51.698;3.942;2024-03-02T14:35:35;11.40;99.90
9223;DHT22;7557;51.698;3.942;2024-03-02T14:38:06;11.40;99.90
9223;DHT22;7557;51.698;3.942;2024-03-02T14:40:36;11.30;99.90
9223;DHT22;7557;51.698;3.942;2024-03-02T14:43:13;11.30;99.90
9223;DHT22;7557;51.698;3.942;2024-03-02T14:45:45;11.20;99.90
9223;DHT22;7557;51.698;3.942;2024-03-02T14:48:24;11.20;99.90
9223;DHT22;7557;51.698;3.942;2024-03-02T14:50:55;11.20;99.90
9223;DHT22;7557;51.698;3.942;2024-03-02T14:53:32;11.10;99.90
9223;DHT22;7557;51.698;3.942;2024-03-02T14:56:03;11.10;99.90
9223;DHT22;7557;51.698;3.942;2024-03-02T14:58:31;11.10;99.90
9223;DHT22;7557;51.698;3.942;2024-03-02T15:01:00;11.10;99.90
9223;DHT22;7557;51.698;3.942;2024-03-02T15:03:29;11.10;99.90
9223;DHT22;7557;51.698;3.942;2024-03-02T15:05:58;11.10;99.90
9223;DHT22;7557;51.698;3.942;2024-03-02T15:08:25;11.20;99.90
9223;DHT22;7557;51.698;3.942;2024-03-02T15:10:53;11.20;99.90
9223;DHT22;7557;51.698;3.942;2024-03-02T15:13:21;11.20;99.90
9223;DHT22;7557;51.698;3.942;2024-03-02T15:15:51;11.20;99.90
9223;DHT22;7557;51.698;3.942;2024-03-02T15:18:21;11.20;99.90
9223;DHT22;7557;51.698;3.942;2024-03-02T15:20:50;11.20;99.90
9223;DHT22;7557;51.698;3.942;2024-03-02T15:23:17;11.20;99.90
9223;DHT22;7557;51.698;3.942;2024-03-02T15:25:44;11.20;99.90
9223;DHT22;7557;51.698;3.942;2024-03-02T15:28:12;11.20;99.90
9223;DHT22;7557;51.698;3.942;2024-03-02T15:30:40;11.20;99.90
9223;DHT22;7557;51.698;3.942;2024-03-02T15:33:07;11.20;99.90
9223;DHT22;7557;51.698;3.942;2024-03-02T15:35:37;11.20;99.90
9223;DHT22;7557;51.698;3.942;2024-03-02T15:38:04;11.20;99.90
9223;DHT22;7557;51.698;3.942;2024-03-02T15:40:33;11.20;99.90
9223;DHT22;7557;51.698;3.942;2024-03-02T15:43:00;11.30;99.90
9223;DHT22;7557;51.698;3.942;2024-03-02T15:45:27;11.30;99.90
9223;DHT22;7557;51.698;3.942;2024-03-02T15:47:59;11.30;99.90
9223;DHT22;7557;51.698;3.942;2024-03-02T15:50:27;11.30;99.90
9223;DHT22;7557;51.698;3.942;2024-03-02T15:52:56;11.30;99.90
9223;DHT22;7557;51.698;3.942;2024-03-02T15:55:31;11.40;99.90
9223;DHT22;7557;51.698;3.942;2024-03-02T15:58:00;11.40;99.90
9223;DHT22;7557;51.698;3.942;2024-03-02T16:00:29;11.30;99.90
9223;DHT22;7557;51.698;3.942;2024-03-02T16:02:57;11.30;99.90
9223;DHT22;7557;51.698;3.942;2024-03-02T16:05:24;11.30;99.90
9223;DHT22;7557;51.698;3.942;2024-03-02T16:07:52;11.30;99.90
9223;DHT22;7557;51.698;3.942;2024-03-02T16:10:21;11.30;99.90
9223;DHT22;7557;51.698;3.942;2024-03-02T16:12:50;11.30;99.90
9223;DHT22;7557;51.698;3.942;2024-03-02T16:15:19;11.30;99.90
9223;DHT22;7557;51.698;3.942;2024-03-02T16:17:46;11.30;99.90
9223;DHT22;7557;51.698;3.942;2024-03-02T16:20:15;11.30;99.90
9223;DHT22;7557;51.698;3.942;2024-03-02T16:22:43;11.30;99.90
9223;DHT22;7557;51.698;3.942;2024-03-02T16:25:11;11.30;99.90
9223;DHT22;7557;51.698;3.942;2024-03-02T16:27:40;11.30;99.90